createdAt,value
2019-05-29T00:01:46.169Z,85.47
2019-05-29T00:02:26.511Z,85.38
2019-05-29T00:03:08.129Z,85.47
2019-05-29T00:03:47.335Z,85.18
2019-05-29T00:04:27.744Z,84.89
2019-05-29T00:05:08.144Z,84.7
2019-05-29T00:05:48.580Z,84.99
2019-05-29T00:06:28.986Z,84.8
2019-05-29T00:07:10.107Z,84.32
2019-05-29T00:08:30.351Z,84.23
2019-05-29T00:09:10.735Z,84.13
2019-05-29T00:09:51.135Z,84.13
2019-05-29T00:10:31.520Z,83.46
2019-05-29T00:11:12.225Z,83.84
2019-05-29T00:11:52.318Z,83.27
2019-05-29T00:12:32.745Z,83.27
2019-05-29T00:13:14.382Z,82.7
2019-05-29T00:13:53.590Z,82.6
2019-05-29T00:14:34.005Z,82.79
2019-05-29T00:15:14.572Z,83.17
2019-05-29T00:15:54.804Z,82.46
2019-05-29T00:16:35.173Z,81.32
2019-05-29T00:17:15.598Z,81.79
2019-05-29T00:17:56.009Z,82.56
2019-05-29T00:18:36.447Z,82.56
2019-05-29T00:19:16.860Z,82.56
2019-05-29T00:19:57.280Z,82.08
2019-05-29T00:20:37.729Z,82.46
2019-05-29T00:21:18.661Z,82.28
2019-05-29T00:21:58.546Z,81.79
2019-05-29T00:23:19.334Z,81.51
2019-05-29T00:23:59.748Z,81.03
2019-05-29T00:24:40.162Z,81.41
2019-05-29T00:26:01.000Z,82.08
2019-05-29T00:26:41.426Z,82.08
2019-05-29T00:27:21.849Z,81.79
2019-05-29T00:28:02.266Z,81.6
2019-05-29T00:28:42.681Z,80.74
2019-05-29T00:29:23.119Z,80.84
2019-05-29T00:30:03.551Z,80.65
2019-05-29T00:30:43.925Z,80.93
2019-05-29T00:31:24.345Z,80.84
2019-05-29T00:32:04.768Z,81.32
2019-05-29T00:32:45.184Z,81.22
2019-05-29T00:33:25.605Z,81.79
2019-05-29T00:34:06.931Z,81.13
2019-05-29T00:34:46.455Z,81.22
2019-05-29T00:35:26.862Z,81.13
2019-05-29T00:36:08.210Z,81.22
2019-05-29T00:36:47.672Z,80.84
2019-05-29T00:37:28.054Z,80.84
2019-05-29T00:38:08.518Z,80.17
2019-05-29T00:38:48.835Z,79.6
2019-05-29T00:39:29.221Z,79.98
2019-05-29T00:40:50.010Z,80.84
2019-05-29T00:41:30.388Z,79.79
2019-05-29T00:42:11.120Z,80.07
2019-05-29T00:42:51.176Z,79.98
2019-05-29T00:43:31.585Z,79.31
2019-05-29T00:44:13.001Z,79.69
2019-05-29T00:44:52.409Z,79.41
2019-05-29T00:45:32.856Z,79.98
2019-05-29T00:46:13.473Z,80.17
2019-05-29T00:46:53.672Z,79.69
2019-05-29T00:47:34.069Z,80.07
2019-05-29T00:48:14.451Z,79.79
2019-05-29T00:48:54.842Z,79.69
2019-05-29T00:49:35.234Z,79.75
2019-05-29T00:50:16.116Z,79.65
2019-05-29T00:50:56.033Z,79.94
2019-05-29T00:51:36.455Z,79.5
2019-05-29T00:52:16.873Z,79.88
2019-05-29T00:52:57.274Z,79.5
2019-05-29T00:53:37.716Z,79.79
2019-05-29T00:54:18.522Z,79.27
2019-05-29T00:54:58.544Z,79.36
2019-05-29T00:55:38.961Z,79.98
2019-05-29T00:56:19.353Z,79.56
2019-05-29T00:56:59.685Z,80.04
2019-05-29T00:58:20.496Z,80.13
2019-05-29T00:59:00.897Z,79.65
2019-05-29T00:59:41.316Z,80.22
2019-05-29T01:00:21.735Z,80.13
2019-05-29T01:01:02.161Z,79.65
2019-05-29T01:01:42.581Z,79.36
2019-05-29T01:02:23.025Z,79.65
2019-05-29T01:03:03.419Z,79.65
2019-05-29T01:03:43.857Z,80.22
2019-05-29T01:04:24.262Z,79.94
2019-05-29T01:05:04.686Z,80.04
2019-05-29T01:05:45.097Z,80.22
2019-05-29T01:06:25.507Z,81.09
2019-05-29T01:07:05.869Z,81.18
2019-05-29T01:07:46.293Z,80.9
2019-05-29T01:08:26.700Z,80.61
2019-05-29T01:09:07.121Z,80.51
2019-05-29T01:09:47.544Z,81.47
2019-05-29T01:10:27.979Z,81.47
2019-05-29T01:11:08.359Z,81.85
2019-05-29T01:16:11.227Z,81.09
2019-05-29T01:16:59.913Z,80.99
2019-05-29T01:19:15.934Z,81.09
2019-05-29T01:19:56.191Z,80.8
2019-05-29T01:20:36.619Z,80.7
2019-05-29T01:21:17.985Z,80.7
2019-05-29T01:21:57.564Z,80.8
2019-05-29T01:23:18.382Z,80.85
2019-05-29T01:23:58.677Z,80.95
2019-05-29T01:24:39.036Z,81.24
2019-05-29T01:25:20.515Z,81.52
2019-05-29T01:25:59.811Z,81.24
2019-05-29T01:26:40.218Z,81.71
2019-05-29T01:27:20.912Z,81.33
2019-05-29T01:28:01.045Z,81.71
2019-05-29T01:28:41.479Z,81.52
2019-05-29T01:29:21.828Z,82.09
2019-05-29T01:30:02.229Z,81.52
2019-05-29T01:30:42.671Z,81.43
2019-05-29T01:31:23.560Z,81.71
2019-05-29T01:32:03.458Z,81.71
2019-05-29T01:32:44.078Z,81.33
2019-05-29T01:33:24.960Z,81.43
2019-05-29T01:34:04.916Z,81.52
2019-05-29T01:34:47.198Z,81.52
2019-05-29T01:35:27.651Z,81.43
2019-05-29T01:36:08.004Z,80.85
2019-05-29T01:36:48.456Z,81.52
2019-05-29T01:38:09.181Z,81.81
2019-05-29T01:38:49.653Z,81.14
2019-05-29T01:39:30.292Z,81.24
2019-05-29T01:40:19.774Z,80.66
2019-05-29T01:40:52.107Z,80.57
2019-05-29T01:41:34.327Z,80.57
2019-05-29T01:42:15.180Z,81.14
2019-05-29T01:42:55.175Z,81.24
2019-05-29T01:43:35.621Z,80.76
2019-05-29T01:44:15.946Z,81.04
2019-05-29T01:45:36.753Z,81.14
2019-05-29T01:46:17.283Z,81.04
2019-05-29T01:46:57.643Z,80.76
2019-05-29T01:48:19.442Z,80.66
2019-05-29T01:48:58.799Z,80.66
2019-05-29T01:49:39.211Z,81.14
2019-05-29T01:50:19.678Z,81.52
2019-05-29T01:50:59.983Z,81.71
2019-05-29T01:51:40.401Z,81.38
2019-05-29T01:52:21.854Z,82.06
2019-05-29T01:53:01.596Z,81.86
2019-05-29T01:53:41.989Z,81.67
2019-05-29T01:54:22.376Z,81.96
2019-05-29T01:55:02.783Z,82.53
2019-05-29T01:55:43.185Z,82.53
2019-05-29T01:56:23.872Z,82.34
2019-05-29T01:57:04.042Z,81.96
2019-05-29T01:57:44.409Z,82.91
2019-05-29T01:58:24.824Z,83.01
2019-05-29T01:59:05.243Z,83.48
2019-05-29T01:59:45.599Z,83.2
2019-05-29T02:00:25.984Z,82.43
2019-05-29T02:01:06.387Z,83.48
2019-05-29T02:01:46.771Z,83.87
2019-05-29T02:03:07.566Z,83.29
2019-05-29T02:03:47.994Z,83.39
2019-05-29T02:04:28.399Z,83.01
2019-05-29T02:05:08.935Z,82.43
2019-05-29T02:05:49.358Z,82.43
2019-05-29T02:06:29.779Z,83.06
2019-05-29T02:07:10.181Z,83.54
2019-05-29T02:07:50.594Z,83.83
2019-05-29T02:08:31.014Z,84.2
2019-05-29T02:09:11.418Z,84.11
2019-05-29T02:09:51.778Z,84.97
2019-05-29T02:10:32.172Z,84.2
2019-05-29T02:11:12.584Z,84.59
2019-05-29T02:11:53.011Z,84.97
2019-05-29T02:12:33.388Z,85.35
2019-05-29T02:13:13.748Z,85.54
2019-05-29T02:13:54.134Z,85.54
2019-05-29T02:14:34.551Z,86.11
2019-05-29T02:15:23.582Z,86.11
2019-05-29T02:15:55.283Z,85.54
2019-05-29T02:16:35.681Z,85.45
2019-05-29T02:17:16.082Z,85.64
2019-05-29T02:17:56.495Z,85.73
2019-05-29T02:18:36.922Z,86.59
2019-05-29T02:19:17.739Z,87.26
2019-05-29T02:20:38.176Z,87.93
2019-05-29T02:21:18.616Z,87.93
2019-05-29T02:21:59.005Z,87.83
2019-05-29T02:22:39.430Z,87.64
2019-05-29T02:23:19.989Z,87.45
2019-05-29T02:24:00.266Z,86.98
2019-05-29T02:24:40.679Z,87.45
2019-05-29T02:25:22.184Z,86.88
2019-05-29T02:26:01.524Z,87.26
2019-05-29T02:26:41.956Z,86.49
2019-05-29T02:27:23.398Z,86.59
2019-05-29T02:28:02.809Z,85.83
2019-05-29T02:28:43.206Z,85.54
2019-05-29T02:29:24.783Z,86.02
2019-05-29T02:30:04.054Z,86.69
2019-05-29T02:30:44.434Z,86.63
2019-05-29T02:31:26.932Z,85.97
2019-05-29T02:32:05.277Z,85.77
2019-05-29T02:32:45.681Z,85.77
2019-05-29T02:33:26.680Z,85.11
2019-05-29T02:34:07.391Z,85.68
2019-05-29T02:35:29.392Z,84.72
2019-05-29T02:36:07.670Z,84.92
2019-05-29T02:36:48.093Z,85.11
2019-05-29T02:38:08.950Z,84.72
2019-05-29T02:38:49.384Z,84.44
2019-05-29T02:39:29.818Z,84.44
2019-05-29T02:40:10.200Z,84.16
2019-05-29T02:40:50.608Z,83.96
2019-05-29T02:41:31.037Z,85.58
2019-05-29T02:42:11.440Z,85.21
2019-05-29T02:42:51.860Z,84.34
2019-05-29T02:43:32.267Z,84.92
2019-05-29T02:44:12.702Z,84.44
2019-05-29T02:44:53.105Z,84.49
2019-05-29T02:45:52.443Z,84.97
2019-05-29T02:46:13.920Z,85.35
2019-05-29T02:46:54.329Z,85.25
2019-05-29T02:47:34.752Z,85.35
2019-05-29T02:48:15.173Z,85.25
2019-05-29T02:48:55.596Z,84.78
2019-05-29T02:49:36.029Z,85.06
2019-05-29T02:50:16.543Z,84.78
2019-05-29T02:50:56.936Z,85.54
2019-05-29T02:51:37.345Z,85.25
2019-05-29T02:52:58.161Z,85.64
2019-05-29T02:53:38.594Z,85.83
2019-05-29T02:54:20.277Z,86.02
2019-05-29T02:55:39.849Z,85.45
2019-05-29T02:56:20.706Z,85.64
2019-05-29T02:57:00.688Z,85.73
2019-05-29T02:57:41.144Z,85.25
2019-05-29T02:58:23.293Z,85.45
2019-05-29T02:59:01.942Z,85.64
2019-05-29T02:59:42.380Z,84.69
2019-05-29T03:00:23.351Z,85.54
2019-05-29T03:01:03.195Z,85.54
2019-05-29T03:01:43.619Z,86.11
2019-05-29T03:02:25.492Z,85.93
2019-05-29T03:03:04.470Z,86.78
2019-05-29T03:03:44.898Z,85.06
2019-05-29T03:04:26.197Z,85.25
2019-05-29T03:05:05.737Z,84.4
2019-05-29T03:05:46.230Z,85.06
2019-05-29T03:06:27.955Z,85.35
2019-05-29T03:07:07.037Z,84.3
2019-05-29T03:07:47.399Z,84.11
2019-05-29T03:08:29.918Z,84.01
2019-05-29T03:09:08.235Z,84.2
2019-05-29T03:10:30.797Z,85.35
2019-05-29T03:11:09.498Z,85.45
2019-05-29T03:11:49.874Z,85.93
2019-05-29T03:12:31.427Z,86.59
2019-05-29T03:13:10.698Z,87.21
2019-05-29T03:13:51.088Z,87.35
2019-05-29T03:14:32.221Z,88.07
2019-05-29T03:15:11.905Z,87.5
2019-05-29T03:16:08.296Z,87.74
2019-05-29T03:16:34.621Z,87.88
2019-05-29T03:17:13.173Z,87.69
2019-05-29T03:17:53.598Z,88.02
2019-05-29T03:18:34.895Z,88.12
2019-05-29T03:19:14.455Z,87.74
2019-05-29T03:19:54.877Z,88.21
2019-05-29T03:20:35.304Z,88.5
2019-05-29T03:21:15.729Z,88.12
2019-05-29T03:21:56.151Z,88.12
2019-05-29T03:22:36.605Z,87.64
2019-05-29T03:23:16.983Z,87.83
2019-05-29T03:23:57.382Z,88.59
2019-05-29T03:25:18.155Z,87.74
2019-05-29T03:25:58.586Z,87.64
2019-05-29T03:26:39.003Z,87.16
2019-05-29T03:27:59.826Z,87.26
2019-05-29T03:28:40.264Z,87.35
2019-05-29T03:29:20.689Z,86.78
2019-05-29T03:30:01.156Z,86.78
2019-05-29T03:30:45.602Z,87.26
2019-05-29T03:31:21.972Z,87.64
2019-05-29T03:32:02.386Z,87.35
2019-05-29T03:32:47.514Z,86.69
2019-05-29T03:33:23.222Z,86.98
2019-05-29T03:34:03.626Z,87.54
2019-05-29T03:34:46.684Z,87.93
2019-05-29T03:35:27.210Z,87.83
2019-05-29T03:36:04.858Z,87.93
2019-05-29T03:36:47.964Z,87.74
2019-05-29T03:37:26.244Z,87.74
2019-05-29T03:38:06.099Z,87.64
2019-05-29T03:38:46.527Z,87.93
2019-05-29T03:39:28.077Z,88.02
2019-05-29T03:40:07.305Z,88.21
2019-05-29T03:40:47.730Z,88.02
2019-05-29T03:41:28.272Z,87.64
2019-05-29T03:42:48.994Z,86.69
2019-05-29T03:43:30.974Z,86.98
2019-05-29T03:44:10.547Z,86.98
2019-05-29T03:45:31.196Z,88.59
2019-05-29T03:46:28.986Z,88.31
2019-05-29T03:46:51.464Z,88.31
2019-05-29T03:47:33.137Z,87.64
2019-05-29T03:48:12.252Z,87.26
2019-05-29T03:48:52.670Z,86.78
2019-05-29T03:50:15.759Z,88.21
2019-05-29T03:50:53.928Z,88.21
2019-05-29T03:51:34.964Z,88.31
2019-05-29T03:52:14.775Z,88.12
2019-05-29T03:52:55.210Z,87.26
2019-05-29T03:53:36.558Z,87.79
2019-05-29T03:54:16.061Z,87.64
2019-05-29T03:54:56.478Z,87.16
2019-05-29T03:55:37.859Z,87.16
2019-05-29T03:56:17.345Z,87.88
2019-05-29T03:56:57.759Z,88.78
2019-05-29T03:57:38.426Z,88.74
2019-05-29T03:58:18.578Z,88.98
2019-05-29T03:58:59.008Z,88.78
2019-05-29T04:00:19.872Z,88.59
2019-05-29T04:01:00.299Z,88.12
2019-05-29T04:01:40.724Z,87.74
2019-05-29T04:02:21.129Z,88.21
2019-05-29T04:03:01.540Z,88.4
2019-05-29T04:03:41.919Z,88.12
2019-05-29T04:04:22.299Z,87.93
2019-05-29T04:05:02.667Z,87.45
2019-05-29T04:05:43.063Z,87.35
2019-05-29T04:06:23.466Z,86.59
2019-05-29T04:07:44.221Z,84.78
2019-05-29T04:08:24.627Z,84.2
2019-05-29T04:09:05.031Z,84.25
2019-05-29T04:09:45.423Z,84.44
2019-05-29T04:11:42.949Z,84.25
2019-05-29T04:13:36.133Z,82.82
2019-05-29T04:14:15.752Z,83.01
2019-05-29T04:14:56.176Z,82.48
2019-05-29T04:15:38.534Z,81.71
2019-05-29T04:16:17.004Z,81.62
2019-05-29T04:16:59.947Z,80.85
2019-05-29T04:17:38.115Z,80.28
2019-05-29T04:18:19.607Z,79.65
2019-05-29T04:18:58.675Z,79.46
2019-05-29T04:20:19.516Z,78.99
2019-05-29T04:20:59.937Z,78.79
2019-05-29T04:21:40.366Z,77.74
2019-05-29T04:22:20.794Z,78.07
2019-05-29T04:23:01.197Z,77.11
2019-05-29T04:23:41.623Z,76.25
2019-05-29T04:24:22.075Z,75.87
2019-05-29T04:25:02.470Z,75.39
2019-05-29T04:25:43.311Z,75.39
2019-05-29T04:26:23.308Z,75.39
2019-05-29T04:27:03.736Z,74.63
2019-05-29T04:27:44.166Z,74.63
2019-05-29T04:28:24.588Z,74.82
2019-05-29T05:05:33.226Z,75.1
2019-05-29T05:06:13.264Z,75.1
2019-05-29T05:06:53.676Z,75.49
2019-05-29T05:07:35.272Z,75.2
2019-05-29T05:08:14.564Z,75.3
2019-05-29T05:08:54.937Z,74.63
2019-05-29T05:10:15.750Z,74.09
2019-05-29T05:10:56.170Z,73.71
2019-05-29T05:11:37.708Z,73.65
2019-05-29T05:12:18.823Z,72.02
2019-05-29T05:12:59.242Z,70.62
2019-05-29T05:13:39.797Z,69.42
2019-05-29T05:14:20.089Z,67.88
2019-05-29T05:15:00.518Z,66.67
2019-05-29T05:15:40.921Z,66.19
2019-05-29T05:16:21.344Z,64.98
2019-05-29T05:17:01.776Z,63.67
2019-05-29T05:17:42.206Z,62.71
2019-05-29T05:18:22.636Z,61.59
2019-05-29T05:20:38.261Z,59.99
2019-05-29T05:21:17.468Z,58.39
2019-05-29T05:21:57.897Z,57.81
2019-05-29T05:22:38.313Z,56.85
2019-05-29T05:23:18.784Z,56.68
2019-05-29T05:23:59.154Z,55.63
2019-05-29T05:24:42.472Z,55.53
2019-05-29T05:25:20.846Z,55.37
2019-05-29T05:26:01.261Z,54.31
2019-05-29T05:26:41.691Z,54.22
2019-05-29T05:27:22.116Z,53.74
2019-05-29T05:28:02.538Z,53.38
2019-05-29T05:28:45.467Z,52.89
2019-05-29T05:29:23.417Z,52.44
2019-05-29T05:30:03.848Z,51.29
2019-05-29T05:30:44.257Z,51.19
2019-05-29T05:31:24.663Z,51.19
2019-05-29T05:32:05.113Z,50.71
2019-05-29T05:32:45.511Z,50.9
2019-05-29T05:33:25.945Z,49.84
2019-05-29T05:34:06.390Z,49.58
2019-05-29T05:34:46.823Z,49.19
2019-05-29T05:35:27.246Z,49.19
2019-05-29T05:36:07.682Z,49.58
2019-05-29T05:36:48.124Z,49.29
2019-05-29T05:37:28.541Z,49.12
2019-05-29T05:38:08.994Z,47.58
2019-05-29T05:38:49.420Z,47.1
2019-05-29T05:39:30.770Z,47.51
2019-05-29T05:40:10.269Z,47.22
2019-05-29T05:40:50.700Z,47.19
2019-05-29T05:41:31.153Z,47.41
2019-05-29T05:42:11.618Z,47.22
2019-05-29T05:42:52.062Z,46.73
2019-05-29T05:43:33.044Z,46.83
2019-05-29T05:44:13.490Z,46.45
2019-05-29T05:44:53.912Z,46.25
2019-05-29T05:45:35.087Z,46.45
2019-05-29T05:46:17.776Z,45.99
2019-05-29T05:47:49.405Z,45.48
2019-05-29T05:48:19.299Z,45.68
2019-05-29T05:48:59.725Z,45.87
2019-05-29T05:50:20.593Z,45.87
2019-05-29T05:51:01.021Z,46.73
2019-05-29T05:53:14.089Z,45.77
2019-05-29T05:53:54.701Z,46.15
2019-05-29T05:54:35.373Z,46.28
2019-05-29T05:55:15.535Z,46.45
2019-05-29T05:55:55.964Z,45.7
2019-05-29T05:56:37.598Z,45.89
2019-05-29T05:57:16.856Z,44.95
2019-05-29T05:57:57.323Z,44.76
2019-05-29T05:58:37.883Z,44.66
2019-05-29T05:59:18.320Z,44.56
2019-05-29T05:59:58.753Z,44.83
2019-05-29T06:00:42.053Z,44.66
2019-05-29T06:01:20.657Z,44.76
2019-05-29T06:02:03.982Z,44.76
2019-05-29T06:02:44.626Z,44.37
2019-05-29T06:03:25.067Z,44.49
2019-05-29T06:04:05.560Z,43.91
2019-05-29T06:04:46.025Z,44.01
2019-05-29T06:05:26.430Z,44.1
2019-05-29T06:06:47.243Z,43.33
2019-05-29T06:08:40.206Z,43.62
2019-05-29T06:09:22.090Z,43.06
2019-05-29T06:10:02.444Z,42.77
2019-05-29T06:10:42.861Z,41.81
2019-05-29T06:11:23.336Z,42.1
2019-05-29T06:12:03.774Z,42.97
2019-05-29T06:12:44.197Z,42.87
2019-05-29T06:13:24.641Z,42.77
2019-05-29T06:14:05.078Z,42.19
2019-05-29T06:14:45.516Z,42.68
2019-05-29T06:15:25.950Z,42.39
2019-05-29T06:16:06.382Z,41.81
2019-05-29T06:16:48.697Z,41.71
2019-05-29T06:17:29.125Z,41.52
2019-05-29T06:18:20.259Z,41.42
2019-05-29T06:18:49.970Z,41.61
2019-05-29T06:19:30.392Z,41.54
2019-05-29T06:20:51.228Z,40.67
2019-05-29T06:24:38.849Z,41.71
2019-05-29T06:25:18.544Z,41.61
2019-05-29T06:26:00.098Z,41.44
2019-05-29T06:26:39.351Z,41.44
2019-05-29T06:27:19.769Z,41.23
2019-05-29T06:28:41.825Z,41.42
2019-05-29T06:29:22.283Z,40.84
2019-05-29T06:30:03.483Z,40.45
2019-05-29T06:30:44.892Z,41.33
2019-05-29T06:31:26.525Z,42.39
2019-05-29T06:32:03.977Z,42.1
2019-05-29T06:32:44.459Z,42.29
2019-05-29T06:33:24.912Z,41.81
2019-05-29T06:34:05.461Z,41.71
2019-05-29T06:34:45.874Z,41.73
2019-05-29T06:35:26.442Z,41.44
2019-05-29T06:36:06.883Z,41.35
2019-05-29T06:36:48.334Z,40.67
2019-05-29T06:37:28.093Z,40.77
2019-05-29T06:38:08.513Z,41.05
2019-05-29T06:38:48.922Z,40.47
2019-05-29T06:39:29.411Z,40.28
2019-05-29T06:40:10.846Z,41.35
2019-05-29T06:40:51.350Z,40.67
2019-05-29T06:41:31.805Z,41.44
2019-05-29T06:42:12.222Z,41.42
2019-05-29T06:42:52.678Z,41.78
2019-05-29T06:43:33.932Z,42.56
2019-05-29T06:44:55.411Z,43.02
2019-05-29T06:45:36.157Z,43.67
2019-05-29T06:46:17.739Z,44.06
2019-05-29T06:47:40.724Z,43.6
2019-05-29T06:48:30.667Z,44.18
2019-05-29T06:49:01.080Z,43.98
2019-05-29T06:51:15.408Z,43.89
2019-05-29T06:51:59.677Z,44.37
2019-05-29T06:52:37.658Z,44.46
2019-05-29T06:53:18.189Z,44.37
2019-05-29T06:53:58.597Z,44.46
2019-05-29T06:54:39.956Z,44.46
2019-05-29T06:55:19.527Z,44.46
2019-05-29T06:56:01.358Z,44.78
2019-05-29T07:02:31.606Z,43.35
2019-05-29T07:03:09.289Z,42.97
2019-05-29T07:03:51.292Z,43.06
2019-05-29T07:04:31.567Z,42.77
2019-05-29T07:05:14.390Z,42.97
2019-05-29T07:05:54.803Z,42.77
2019-05-29T07:06:36.440Z,42.48
2019-05-29T07:07:16.003Z,42.97
2019-05-29T07:07:56.574Z,43.06
2019-05-29T07:09:18.809Z,42.87
2019-05-29T07:12:34.542Z,42.21
2019-05-29T07:13:15.005Z,41.52
2019-05-29T07:13:55.523Z,41.54
2019-05-29T07:14:36.408Z,41.63
2019-05-29T07:15:17.369Z,41.93
2019-05-29T07:15:58.046Z,41.63
2019-05-29T07:16:45.041Z,41.83
2019-05-29T07:17:19.191Z,41.73
2019-05-29T07:17:59.947Z,41.35
2019-05-29T07:19:18.080Z,42.21
2019-05-29T07:19:26.750Z,41.35
2019-05-29T07:20:04.336Z,41.25
2019-05-29T07:20:44.855Z,41.25
2019-05-29T07:21:26.241Z,41.71
2019-05-29T07:22:06.787Z,41.52
2019-05-29T07:22:47.584Z,41.52
2019-05-29T07:23:28.061Z,41.61
2019-05-29T07:24:09.636Z,41.98
2019-05-29T07:24:50.264Z,42.56
2019-05-29T07:25:31.074Z,43.14
2019-05-29T07:26:11.652Z,43.52
2019-05-29T07:26:52.304Z,43.62
2019-05-29T07:27:33.370Z,42.94
2019-05-29T07:28:13.375Z,43.43
2019-05-29T07:29:06.339Z,43.62
2019-05-29T07:29:36.905Z,43.62
2019-05-29T07:30:15.858Z,43.33
2019-05-29T07:31:01.477Z,43.33
2019-05-29T07:32:19.504Z,44.56
2019-05-29T07:33:01.040Z,44.46
2019-05-29T07:33:43.169Z,44.95
2019-05-29T07:34:22.699Z,45.24
2019-05-29T07:35:04.405Z,44.95
2019-05-29T07:35:43.658Z,45.14
2019-05-29T07:36:24.061Z,44.56
2019-05-29T07:37:04.483Z,44.29
2019-05-29T07:37:48.717Z,44.1
2019-05-29T07:40:01.517Z,44.46
2019-05-29T07:40:42.607Z,44.37
2019-05-29T07:41:22.376Z,44.56
2019-05-29T07:42:02.750Z,44.37
2019-05-29T07:43:23.814Z,45.48
2019-05-29T07:44:04.295Z,46.64
2019-05-29T07:44:46.292Z,46.64
2019-05-29T07:45:26.729Z,46.33
2019-05-29T07:46:07.182Z,47.1
2019-05-29T07:46:48.912Z,48.23
2019-05-29T07:47:30.533Z,48.33
2019-05-29T07:48:10.976Z,48.33
2019-05-29T07:48:51.397Z,48.3
2019-05-29T07:49:38.815Z,49.27
2019-05-29T07:50:15.756Z,49.17
2019-05-29T07:51:06.541Z,49.94
2019-05-29T07:51:40.481Z,50.13
2019-05-29T07:52:23.065Z,49.65
2019-05-29T07:53:04.309Z,49.94
2019-05-29T07:53:46.094Z,50.3
2019-05-29T07:54:25.789Z,50.99
2019-05-29T07:55:06.267Z,50.49
2019-05-29T07:55:46.776Z,50.78
2019-05-29T07:56:27.146Z,50.01
2019-05-29T07:57:07.763Z,49.94
2019-05-29T07:57:48.927Z,50.04
2019-05-29T07:58:28.694Z,50.32
2019-05-29T07:59:09.194Z,50.99
2019-05-29T07:59:49.862Z,49.94
2019-05-29T08:00:35.448Z,49.84
2019-05-29T08:01:13.444Z,49.84
2019-05-29T08:01:51.406Z,49.84
2019-05-29T08:02:31.916Z,50.51
2019-05-29T08:03:12.316Z,49.74
2019-05-29T08:03:54.867Z,49.27
2019-05-29T08:04:37.156Z,49.36
2019-05-29T08:05:19.230Z,49.36
2019-05-29T08:05:59.635Z,49.27
2019-05-29T08:06:47.567Z,49.17
2019-05-29T08:07:20.754Z,49.29
2019-05-29T08:08:01.311Z,49.19
2019-05-29T08:08:41.793Z,48.52
2019-05-29T08:09:22.175Z,47.49
2019-05-29T08:10:02.614Z,47.49
2019-05-29T08:10:45.446Z,47.1
2019-05-29T08:11:24.010Z,47.1
2019-05-29T08:12:04.471Z,46.33
2019-05-29T08:12:50.340Z,45.84
2019-05-29T08:13:25.794Z,46.55
2019-05-29T08:14:08.225Z,46.62
2019-05-29T08:14:47.976Z,46.45
2019-05-29T08:15:28.354Z,45.87
2019-05-29T08:16:09.189Z,45.99
2019-05-29T08:16:50.517Z,46.66
2019-05-29T08:17:31.341Z,45.82
2019-05-29T08:18:12.589Z,44.37
2019-05-29T08:18:53.341Z,43.6
2019-05-29T08:19:33.606Z,43.72
2019-05-29T08:21:46.845Z,42.39
2019-05-29T08:22:34.093Z,41.71
2019-05-29T08:23:08.156Z,41.71
2019-05-29T08:23:48.943Z,41.73
2019-05-29T08:25:10.108Z,39.51
2019-05-29T08:25:51.844Z,39.41
2019-05-29T08:26:32.927Z,40.28
2019-05-29T08:27:13.902Z,39.99
2019-05-29T08:27:54.130Z,39.99
2019-05-29T08:28:34.635Z,40.01
2019-05-29T08:29:14.974Z,39.14
2019-05-29T08:29:55.389Z,38.66
2019-05-29T08:30:35.812Z,39.06
2019-05-29T08:31:16.292Z,38.87
2019-05-29T08:31:56.688Z,38.97
2019-05-29T08:32:38.212Z,38.21
2019-05-29T08:33:19.381Z,38.04
2019-05-29T08:33:59.301Z,37.85
2019-05-29T08:34:40.840Z,38.06
2019-05-29T08:35:20.247Z,37.28
2019-05-29T08:36:00.931Z,36.7
2019-05-29T08:36:55.666Z,35.44
2019-05-29T08:37:22.332Z,35.35
2019-05-29T08:38:02.356Z,35.93
2019-05-29T08:38:44.445Z,36.04
2019-05-29T08:39:34.648Z,35.17
2019-05-29T08:40:04.033Z,35.75
2019-05-29T08:40:45.105Z,34.61
2019-05-29T08:41:24.911Z,34.12
2019-05-29T08:42:45.837Z,32.96
2019-05-29T08:43:26.294Z,34.02
2019-05-29T08:44:06.782Z,33.92
2019-05-29T08:45:27.987Z,31.21
2019-05-29T08:46:08.867Z,31.31
2019-05-29T08:47:04.045Z,30.63
2019-05-29T08:47:29.984Z,31.31
2019-05-29T08:48:52.204Z,31.31
2019-05-29T08:49:31.467Z,31.21
2019-05-29T08:50:18.397Z,31.7
2019-05-29T08:50:52.272Z,32.67
2019-05-29T08:51:32.767Z,32.17
2019-05-29T08:52:13.200Z,31.01
2019-05-29T08:52:55.212Z,30.54
2019-05-29T08:53:35.608Z,31.02
2019-05-29T08:54:23.727Z,30.73
2019-05-29T08:54:57.361Z,31.31
2019-05-29T08:55:38.541Z,31.81
2019-05-29T08:56:59.406Z,29.58
2019-05-29T08:57:39.888Z,30.27
2019-05-29T08:58:20.365Z,30.66
2019-05-29T08:59:44.317Z,30.5
2019-05-29T09:00:23.655Z,29.33
2019-05-29T09:01:04.288Z,29.05
2019-05-29T09:01:45.491Z,29.64
2019-05-29T09:02:25.249Z,28.76
2019-05-29T09:03:05.690Z,27.51
2019-05-29T09:03:46.732Z,27.98
2019-05-29T09:04:26.564Z,27.21
2019-05-29T09:05:07.006Z,26.14
2019-05-29T09:06:04.748Z,26.03
2019-05-29T09:08:00.577Z,28.05
2019-05-29T09:08:41.004Z,27.28
2019-05-29T09:09:21.633Z,27.08
2019-05-29T09:10:02.280Z,27.47
2019-05-29T09:10:43.274Z,28.34
2019-05-29T09:11:23.616Z,28.25
2019-05-29T09:12:04.207Z,28.44
2019-05-29T09:12:46.808Z,28.44
2019-05-29T09:14:59.532Z,27.96
2019-05-29T09:15:40.153Z,27.96
2019-05-29T09:16:20.468Z,27.76
2019-05-29T09:17:03.758Z,28.44
2019-05-29T09:17:45.209Z,28.34
2019-05-29T09:18:25.829Z,26.6
2019-05-29T09:19:05.964Z,27.47
2019-05-29T09:19:46.507Z,27.08
2019-05-29T09:20:43.441Z,24.95
2019-05-29T09:21:07.465Z,25.34
2019-05-29T09:21:47.883Z,26.01
2019-05-29T09:22:28.253Z,26.2
2019-05-29T09:23:09.118Z,27.28
2019-05-29T09:25:27.308Z,30.37
2019-05-29T09:26:14.720Z,31.62
2019-05-29T09:26:52.021Z,32.28
2019-05-29T09:27:34.791Z,32.36
2019-05-29T09:28:20.783Z,32.64
2019-05-29T09:28:59.537Z,34.17
2019-05-29T09:29:40.146Z,35.13
2019-05-29T09:30:21.783Z,34.55
2019-05-29T09:31:01.201Z,35.72
2019-05-29T09:31:44.475Z,36.2
2019-05-29T09:32:48.261Z,35.93
2019-05-29T09:33:10.025Z,34.77
2019-05-29T09:33:50.431Z,34.01
2019-05-29T09:34:30.875Z,33.54
2019-05-29T09:35:51.831Z,31.32
2019-05-29T09:36:33.451Z,31.53
2019-05-29T09:37:14.152Z,31.24
2019-05-29T09:37:54.460Z,31.26
2019-05-29T09:38:36.703Z,30.48
2019-05-29T09:39:19.421Z,30.01
2019-05-29T09:39:57.972Z,30.01
2019-05-29T09:40:38.693Z,30.02
2019-05-29T09:41:19.276Z,28.94
2019-05-29T09:42:02.036Z,28.96
2019-05-29T09:42:42.825Z,29.25
2019-05-29T09:43:28.386Z,29.64
2019-05-29T09:44:46.542Z,27.12
2019-05-29T09:45:26.499Z,28.58
2019-05-29T09:46:07.436Z,28.3
2019-05-29T09:46:48.066Z,27.83
2019-05-29T09:47:29.195Z,27.25
2019-05-29T09:48:09.743Z,27.73
2019-05-29T09:48:50.483Z,28.23
2019-05-29T09:49:31.484Z,27.26
2019-05-29T09:50:13.913Z,27.06
2019-05-29T09:51:35.281Z,27.06
2019-05-29T09:52:16.473Z,26.09
2019-05-29T09:52:58.992Z,25.42
2019-05-29T09:53:37.809Z,24.74
2019-05-29T09:54:18.975Z,25.73
2019-05-29T09:55:00.252Z,24.76
2019-05-29T09:55:40.476Z,24.07
2019-05-29T09:56:21.064Z,23.97
2019-05-29T09:57:02.816Z,24.76
2019-05-29T09:57:42.511Z,25.03
2019-05-29T09:58:24.888Z,26.1
2019-05-29T09:59:49.680Z,25.73
2019-05-29T10:00:32.481Z,26.21
2019-05-29T10:01:22.574Z,26.41
2019-05-29T10:01:54.611Z,26.21
2019-05-29T10:02:35.590Z,25.53
2019-05-29T10:03:20.566Z,25.15
2019-05-29T10:04:03.318Z,24.96
2019-05-29T10:04:42.510Z,25.64
2019-05-29T10:05:22.769Z,25.84
2019-05-29T10:06:04.221Z,25.05
2019-05-29T10:06:45.604Z,24.56
2019-05-29T10:07:27.836Z,24.56
2019-05-29T10:08:08.614Z,25.43
2019-05-29T10:08:50.667Z,25.82
2019-05-29T10:09:33.152Z,25.63
2019-05-29T10:10:16.833Z,26.01
2019-05-29T10:11:04.627Z,26.12
2019-05-29T10:12:20.015Z,26.21
2019-05-29T10:13:00.462Z,25.82
2019-05-29T10:13:40.965Z,25.74
2019-05-29T10:14:21.431Z,25.45
2019-05-29T10:15:02.649Z,25.35
2019-05-29T10:15:42.581Z,24.98
2019-05-29T10:16:23.175Z,24
2019-05-29T10:17:09.063Z,24.1
2019-05-29T10:17:45.774Z,24.88
2019-05-29T10:18:32.232Z,24.98
2019-05-29T10:19:08.589Z,25.45
2019-05-29T10:19:49.454Z,25.45
2019-05-29T10:20:29.914Z,25.07
2019-05-29T10:21:16.847Z,25.75
2019-05-29T10:22:00.540Z,25.16
2019-05-29T10:22:40.048Z,25.36
2019-05-29T10:23:20.548Z,25.46
2019-05-29T10:24:02.227Z,25.16
2019-05-29T10:24:41.472Z,24.98
2019-05-29T10:25:23.652Z,24.49
2019-05-29T10:26:04.976Z,24
2019-05-29T10:27:31.585Z,24.68
2019-05-29T10:28:13.581Z,24.4